Time;durP1;ratioP1;P1;durP2;ratioP2;P2;SDS_P1;SDS_P2;PMS_P1;PMS_P2;Temp;Humidity;BMP_temperature;BMP_pressure;BME280_temperature;BME280_humidity;BME280_pressure;Samples;Min_cycle;Max_cycle;Signal;HPM_P1;HPM_P2
2022/03/01 00:00:16;;;;;;;19.73;9.53;;;;;;;4.24;74.51;101542.07;2034484;70;21100;-63
2022/03/01 00:02:46;;;;;;;25.60;9.43;;;;;;;4.23;74.51;101543.37;2020274;70;21007;-63
2022/03/01 00:05:14;;;;;;;22.82;9.15;;;;;;;4.20;74.54;101536.40;1989861;72;20999;-63
2022/03/01 00:07:43;;;;;;;24.95;8.05;;;;;;;4.20;74.57;101530.33;1989858;72;21039;-64
2022/03/01 00:10:12;;;;;;;20.48;9.23;;;;;;;4.19;74.53;101524.70;1990055;72;21124;-64
2022/03/01 00:12:41;;;;;;;21.35;9.48;;;;;;;4.18;74.54;101532.06;1993266;70;21110;-63
2022/03/01 00:15:10;;;;;;;25.02;9.60;;;;;;;4.17;74.54;101534.22;2017766;70;20996;-60
2022/03/01 00:17:39;;;;;;;18.75;6.90;;;;;;;4.16;74.59;101523.38;1997209;72;21024;-60
2022/03/01 00:20:09;;;;;;;19.27;8.58;;;;;;;4.16;74.58;101520.33;2022741;70;21027;-59
2022/03/01 00:22:37;;;;;;;22.98;9.45;;;;;;;4.14;74.60;101516.86;2033836;70;21552;-61
2022/03/01 00:25:07;;;;;;;21.52;7.92;;;;;;;4.12;74.59;101513.83;2015534;70;21068;-61
2022/03/01 00:27:36;;;;;;;17.48;8.18;;;;;;;4.11;74.64;101516.84;2007607;71;20988;-61
2022/03/01 00:30:05;;;;;;;23.65;8.73;;;;;;;4.11;74.62;101518.59;1991077;72;21011;-61
2022/03/01 00:32:34;;;;;;;12.45;5.50;;;;;;;4.09;74.57;101521.20;1984553;71;21442;-62
2022/03/01 00:35:03;;;;;;;19.30;8.60;;;;;;;4.07;74.57;101512.52;1970400;71;21442;-63
2022/03/01 00:37:32;;;;;;;18.32;7.80;;;;;;;4.05;74.57;101508.59;1982975;72;21054;-62
2022/03/01 00:40:01;;;;;;;17.25;7.67;;;;;;;4.05;74.55;101508.59;1972657;73;21101;-62
2022/03/01 00:42:30;;;;;;;21.15;8.88;;;;;;;4.04;74.53;101513.84;1971077;73;21451;-62
2022/03/01 00:44:59;;;;;;;24.92;8.78;;;;;;;4.02;74.53;101515.55;1970803;73;21121;-62
2022/03/01 00:47:28;;;;;;;20.05;8.38;;;;;;;4.02;74.54;101513.83;1970788;73;21462;-62
2022/03/01 00:49:57;;;;;;;18.42;8.85;;;;;;;4.03;74.54;101515.99;1974005;72;21485;-62
2022/03/01 00:52:26;;;;;;;20.35;8.38;;;;;;;4.00;74.52;101512.07;1995344;72;21011;-60
2022/03/01 00:54:55;;;;;;;19.32;8.60;;;;;;;3.99;74.53;101520.33;1973492;72;21110;-61
2022/03/01 00:57:23;;;;;;;14.93;7.45;;;;;;;3.97;74.49;101512.09;1972618;73;21089;-60
2022/03/01 00:59:52;;;;;;;19.00;8.65;;;;;;;3.96;74.47;101515.55;1972565;72;21070;-60
2022/03/01 01:02:21;;;;;;;20.43;8.43;;;;;;;3.93;74.47;101502.51;1972754;73;21105;-61
2022/03/01 01:04:50;;;;;;;21.02;8.33;;;;;;;3.92;74.48;101507.30;1972557;73;21031;-61
2022/03/01 01:07:18;;;;;;;18.52;8.43;;;;;;;3.90;74.54;101512.51;1974946;71;21024;-61
2022/03/01 01:09:47;;;;;;;16.05;7.30;;;;;;;3.88;74.57;101507.73;2008659;71;21027;-64
2022/03/01 01:12:16;;;;;;;19.30;9.45;;;;;;;3.86;74.51;101512.94;2008527;71;21027;-62
2022/03/01 01:14:45;;;;;;;23.18;8.58;;;;;;;3.82;74.52;101507.30;2008609;71;21518;-68
2022/03/01 01:17:13;;;;;;;20.23;8.03;;;;;;;3.81;74.53;101501.64;2008703;71;21101;-64
2022/03/01 01:19:42;;;;;;;20.50;9.28;;;;;;;3.80;74.55;101501.22;2008614;71;21160;-64
2022/03/01 01:24:57;;;;;;;17.90;7.67;;;;;;;3.74;74.56;101502.48;2008552;71;21032;-64
2022/03/01 01:27:26;;;;;;;21.70;8.53;;;;;;;3.75;74.51;101505.55;2008579;71;21032;-64
2022/03/01 01:29:55;;;;;;;19.80;8.08;;;;;;;3.77;74.51;101502.95;1996772;71;21033;-64
2022/03/01 01:32:23;;;;;;;20.95;9.15;;;;;;;3.78;74.51;101504.67;1972758;73;21037;-64
2022/03/01 01:34:52;;;;;;;19.60;8.80;;;;;;;3.74;74.52;101497.28;1972674;73;21090;-64
2022/03/01 01:37:21;;;;;;;21.07;8.85;;;;;;;3.74;74.58;101492.07;1972392;73;21115;-64
2022/03/01 01:39:50;;;;;;;22.27;8.60;;;;;;;3.75;74.62;101503.38;1972559;73;20989;-63
2022/03/01 01:42:19;;;;;;;22.73;9.68;;;;;;;3.77;74.57;101512.06;1972535;73;21513;-63
2022/03/01 01:44:48;;;;;;;20.37;9.08;;;;;;;3.74;74.58;101507.70;1972459;73;21132;-62
2022/03/01 01:47:17;;;;;;;23.95;9.38;;;;;;;3.77;74.58;101514.23;1972776;72;20997;-62
2022/03/01 01:49:46;;;;;;;22.00;9.25;;;;;;;3.75;74.58;101506.84;1972541;73;21109;-63
2022/03/01 01:52:15;;;;;;;20.80;9.35;;;;;;;3.74;74.63;101504.23;1972497;73;21071;-63
2022/03/01 01:54:43;;;;;;;19.50;8.28;;;;;;;3.72;74.75;101509.44;1972522;73;21592;-63
2022/03/01 01:57:21;;;;;;;19.00;8.25;;;;;;;3.73;74.76;101508.59;1972513;72;21041;-62
2022/03/01 01:59:51;;;;;;;21.48;9.10;;;;;;;3.75;74.72;101498.17;1972544;73;21033;-62
2022/03/01 02:02:21;;;;;;;24.90;9.43;;;;;;;3.75;74.73;101507.30;1972504;72;21114;-63
2022/03/01 02:04:50;;;;;;;20.15;9.73;;;;;;;3.76;74.75;101513.81;1972583;72;21025;-63
2022/03/01 02:07:19;;;;;;;19.32;8.88;;;;;;;3.76;74.74;101511.20;1975188;71;21028;-60
2022/03/01 02:09:48;;;;;;;22.35;9.00;;;;;;;3.77;74.75;101518.14;2008731;71;21486;-61
2022/03/01 02:12:16;;;;;;;21.68;8.38;;;;;;;3.78;74.80;101519.89;2008683;71;21038;-60
2022/03/01 02:14:45;;;;;;;19.42;8.75;;;;;;;3.77;74.83;101524.65;2008705;71;21012;-61
2022/03/01 02:17:16;;;;;;;24.90;9.90;;;;;;;3.74;74.86;101522.03;2008782;71;21066;-62
2022/03/01 02:19:49;;;;;;;21.77;8.83;;;;;;;3.74;75.01;101532.89;2008748;71;21055;-60
2022/03/01 02:22:19;;;;;;;21.12;9.48;;;;;;;3.73;75.12;101535.08;2008858;71;21524;-61
2022/03/01 02:24:48;;;;;;;19.73;8.83;;;;;;;3.73;75.20;101535.08;2008766;71;21024;-63
2022/03/01 02:27:16;;;;;;;20.02;8.23;;;;;;;3.75;75.14;101545.06;2008576;71;21072;-64
2022/03/01 02:29:45;;;;;;;23.80;8.65;;;;;;;3.76;75.07;101541.16;2008657;71;21569;-63
2022/03/01 02:32:14;;;;;;;23.75;9.98;;;;;;;3.77;75.02;101545.48;2008725;71;21144;-62
2022/03/01 02:34:42;;;;;;;23.65;9.33;;;;;;;3.76;75.09;101548.98;2008691;71;21020;-63
2022/03/01 02:37:11;;;;;;;25.70;10.25;;;;;;;3.74;75.16;101543.31;2008916;71;21042;-63
2022/03/01 02:39:40;;;;;;;30.05;10.60;;;;;;;3.74;75.14;101532.89;2008810;71;21524;-62
2022/03/01 02:42:09;;;;;;;23.73;10.10;;;;;;;3.70;75.23;101521.59;2008737;71;21011;-62
2022/03/01 02:44:38;;;;;;;23.00;8.63;;;;;;;3.70;75.28;101517.69;2008697;71;21100;-62
2022/03/01 02:47:06;;;;;;;15.95;7.42;;;;;;;3.68;75.30;101509.00;2008650;71;21016;-62
2022/03/01 02:49:35;;;;;;;23.40;9.40;;;;;;;3.64;75.32;101500.31;2008777;71;21040;-63
2022/03/01 02:52:05;;;;;;;21.57;8.95;;;;;;;3.60;75.38;101499.02;2008706;71;21079;-63
2022/03/01 02:54:34;;;;;;;20.10;8.55;;;;;;;3.57;75.47;101493.80;2008558;71;21582;-62
2022/03/01 02:57:03;;;;;;;23.52;8.83;;;;;;;3.54;75.57;101493.78;2008663;71;21422;-62
2022/03/01 02:59:32;;;;;;;22.67;8.93;;;;;;;3.50;75.68;101490.73;2008699;71;21391;-63
2022/03/01 03:02:01;;;;;;;21.57;8.10;;;;;;;3.47;75.76;101485.97;2008702;71;21520;-62
2022/03/01 03:04:30;;;;;;;22.10;8.50;;;;;;;3.44;75.86;101485.95;2008665;71;21113;-63
2022/03/01 03:06:58;;;;;;;24.95;9.28;;;;;;;3.41;75.99;101483.36;2008558;71;21085;-64
2022/03/01 03:09:28;;;;;;;20.82;9.33;;;;;;;3.37;76.14;101484.63;1958553;71;20990;-62
2022/03/01 03:11:56;;;;;;;24.65;8.85;;;;;;;3.35;76.28;101475.52;1956163;73;21119;-62
2022/03/01 03:14:25;;;;;;;28.47;10.10;;;;;;;3.34;76.41;101473.79;1956187;73;21137;-62
2022/03/01 03:16:54;;;;;;;22.60;9.15;;;;;;;3.37;76.36;101481.59;1956172;73;21033;-63
2022/03/01 03:19:23;;;;;;;24.90;9.30;;;;;;;3.37;76.41;101475.08;1956386;73;21034;-63
2022/03/01 03:21:52;;;;;;;23.40;10.30;;;;;;;3.37;76.43;101467.71;1956229;73;21099;-65
2022/03/01 03:24:21;;;;;;;23.35;9.55;;;;;;;3.40;76.42;101474.23;1956203;73;21492;-66
2022/03/01 03:26:49;;;;;;;20.50;8.45;;;;;;;3.41;76.40;101470.34;1971064;72;21518;-66
2022/03/01 03:29:18;;;;;;;23.15;9.25;;;;;;;3.38;76.42;101466.42;1985818;72;21044;-60
2022/03/01 03:31:47;;;;;;;25.30;10.23;;;;;;;3.38;76.45;101459.05;1985784;72;21044;-60
2022/03/01 03:34:16;;;;;;;22.00;9.65;;;;;;;3.37;76.53;101458.16;1985733;72;21059;-61
2022/03/01 03:36:44;;;;;;;25.02;9.58;;;;;;;3.39;76.53;101461.63;1985822;72;21045;-60
2022/03/01 03:39:14;;;;;;;23.27;8.28;;;;;;;3.37;76.55;101455.55;1985820;72;21113;-60
2022/03/01 03:41:42;;;;;;;24.02;8.30;;;;;;;3.36;76.60;101452.53;1985835;72;21422;-60
2022/03/01 03:44:11;;;;;;;24.43;7.87;;;;;;;3.37;76.62;101448.19;1985927;72;20988;-60
2022/03/01 03:46:40;;;;;;;17.00;8.33;;;;;;;3.36;76.67;101438.22;1985661;72;21028;-61
2022/03/01 03:49:09;;;;;;;21.68;7.00;;;;;;;3.34;76.73;101439.95;1985825;72;21029;-60
2022/03/01 03:51:37;;;;;;;21.85;9.13;;;;;;;3.33;76.77;101432.13;1985777;72;21048;-64
2022/03/01 03:54:06;;;;;;;26.65;8.95;;;;;;;3.31;76.77;101426.92;1985927;72;21093;-63
2022/03/01 03:56:36;;;;;;;25.40;9.33;;;;;;;3.32;76.84;101427.78;1985817;72;21044;-61
2022/03/01 03:59:07;;;;;;;25.55;10.75;;;;;;;3.33;76.86;101430.39;1985761;72;21099;-62
2022/03/01 04:01:36;;;;;;;23.55;9.40;;;;;;;3.34;76.91;101429.54;1985447;72;21098;-61
2022/03/01 04:04:05;;;;;;;30.23;9.90;;;;;;;3.34;76.95;101420.43;1985848;72;21087;-61
2022/03/01 04:06:34;;;;;;;21.87;8.80;;;;;;;3.34;76.99;101416.52;1985893;72;21028;-62
2022/03/01 04:09:03;;;;;;;23.83;9.70;;;;;;;3.34;77.03;101421.73;1982809;72;21112;-62
2022/03/01 04:11:33;;;;;;;20.57;8.33;;;;;;;3.33;77.15;101425.62;1982293;72;21528;-62
2022/03/01 04:14:03;;;;;;;20.55;7.87;;;;;;;3.28;77.27;101430.80;1982073;72;21164;-60
2022/03/01 04:16:31;;;;;;;18.35;7.87;;;;;;;3.26;77.36;101429.94;1982057;72;21474;-60
2022/03/01 04:19:00;;;;;;;12.45;6.22;;;;;;;3.24;77.49;101438.18;1982174;72;20999;-61
2022/03/01 04:21:29;;;;;;;20.37;9.08;;;;;;;3.23;77.62;101440.36;1982071;72;21143;-63
2022/03/01 04:23:57;;;;;;;25.32;10.08;;;;;;;3.18;77.73;101442.08;1982007;72;21121;-63
2022/03/01 04:26:26;;;;;;;24.15;9.08;;;;;;;3.17;77.78;101436.42;1983129;71;21234;-64
2022/03/01 04:28:55;;;;;;;21.73;8.78;;;;;;;3.18;77.88;101435.57;2013246;71;21059;-62
2022/03/01 04:31:24;;;;;;;24.65;10.43;;;;;;;3.18;78.00;101436.87;2013184;71;21071;-61
2022/03/01 04:33:54;;;;;;;24.05;9.80;;;;;;;3.15;78.25;101432.95;2013200;71;21008;-61
2022/03/01 04:36:23;;;;;;;22.30;8.40;;;;;;;3.12;78.50;101438.13;2013323;71;21016;-60
2022/03/01 04:38:52;;;;;;;25.80;10.65;;;;;;;3.09;78.63;101446.38;2013104;71;21012;-60
2022/03/01 04:41:21;;;;;;;25.52;9.70;;;;;;;3.08;78.69;101449.86;2013174;71;21079;-59
2022/03/01 04:43:50;;;;;;;23.98;8.83;;;;;;;3.06;78.99;101450.29;2013181;71;21027;-61
2022/03/01 04:46:18;;;;;;;19.90;9.03;;;;;;;3.06;78.99;101438.58;2013449;71;21512;-61
2022/03/01 04:48:47;;;;;;;25.90;10.00;;;;;;;3.06;79.10;101428.58;2013215;71;21012;-61
2022/03/01 04:51:21;;;;;;;22.58;8.75;;;;;;;3.03;79.31;101413.84;2013038;71;21571;-61
2022/03/01 04:53:46;;;;;;;29.20;9.93;;;;;;;3.00;79.48;101413.82;2012794;71;21118;-61
2022/03/01 04:56:15;;;;;;;24.40;9.35;;;;;;;2.96;79.72;101396.47;2013183;71;21114;-61
2022/03/01 04:58:45;;;;;;;24.52;10.55;;;;;;;2.93;79.82;101402.95;2012645;71;21094;-60
2022/03/01 05:01:15;;;;;;;29.00;11.50;;;;;;;2.94;79.93;101396.91;2013208;71;21041;-61
2022/03/01 05:03:46;;;;;;;51.68;18.50;;;;;;;2.94;79.94;101393.00;2012382;71;21041;-63
2022/03/01 05:06:15;;;;;;;26.17;10.70;;;;;;;2.92;80.00;101394.73;2013282;71;21088;-62
2022/03/01 05:08:44;;;;;;;23.70;8.48;;;;;;;2.94;79.99;101394.30;1989969;71;20985;-62
2022/03/01 05:11:12;;;;;;;23.25;9.43;;;;;;;2.93;79.94;101396.45;1977263;72;21000;-62
2022/03/01 05:13:41;;;;;;;30.70;11.50;;;;;;;2.91;80.02;101394.28;1977512;72;21435;-61
2022/03/01 05:16:10;;;;;;;23.87;9.28;;;;;;;2.92;79.94;101384.77;1977240;72;21005;-64
2022/03/01 05:18:38;;;;;;;24.98;8.70;;;;;;;2.92;79.95;101384.33;1977255;72;21001;-64
2022/03/01 05:21:07;;;;;;;22.50;7.87;;;;;;;2.93;79.95;101385.19;1977277;72;21102;-60
2022/03/01 05:23:36;;;;;;;25.70;10.18;;;;;;;2.92;79.95;101388.23;1977275;72;21405;-61
2022/03/01 05:26:05;;;;;;;27.40;10.28;;;;;;;2.92;80.06;101398.63;1977298;72;21129;-62
2022/03/01 05:28:33;;;;;;;32.25;12.23;;;;;;;2.96;80.04;101417.73;1968737;72;21133;-62
2022/03/01 05:31:02;;;;;;;26.70;11.20;;;;;;;2.99;79.97;101426.41;1963115;73;21009;-61
2022/03/01 05:33:36;;;;;;;33.67;10.68;;;;;;;3.01;79.91;101418.17;1963128;73;21070;-63
2022/03/01 05:36:02;;;;;;;30.77;12.65;;;;;;;3.03;79.90;101416.44;1962427;72;21492;-59
2022/03/01 05:38:31;;;;;;;34.95;12.07;;;;;;;3.05;79.88;101421.22;1961094;72;20989;-60
2022/03/01 05:41:00;;;;;;;20.60;8.58;;;;;;;3.07;79.93;101418.19;1979560;72;21075;-60
2022/03/01 05:43:29;;;;;;;9.53;3.87;;;;;;;3.04;80.36;101410.39;1963179;72;21444;-62
2022/03/01 05:45:58;;;;;;;13.05;4.83;;;;;;;3.05;80.83;101421.66;1984075;72;21019;-60
2022/03/01 05:48:30;;;;;;;23.22;8.45;;;;;;;3.02;81.32;101411.23;1986064;72;20996;-59
2022/03/01 05:51:01;;;;;;;14.05;6.87;;;;;;;3.03;81.52;101426.85;1985887;72;21482;-62
2022/03/01 05:53:29;;;;;;;24.92;9.55;;;;;;;3.03;82.25;101442.91;1985991;72;21016;-61
2022/03/01 05:55:59;;;;;;;19.12;7.17;;;;;;;3.00;82.66;101438.98;1985224;72;21109;-60
2022/03/01 05:58:27;;;;;;;15.55;6.53;;;;;;;3.02;82.77;101437.25;1963349;73;20998;-63
2022/03/01 06:00:56;;;;;;;20.25;8.70;;;;;;;3.03;83.12;101442.46;1963399;73;21074;-56
2022/03/01 06:03:25;;;;;;;22.45;9.13;;;;;;;3.00;83.49;101438.98;1963274;73;21126;-61
2022/03/01 06:05:54;;;;;;;27.77;10.80;;;;;;;3.01;83.74;101453.30;1963206;72;21098;-61
2022/03/01 06:08:23;;;;;;;28.40;10.10;;;;;;;3.03;83.90;101453.31;1966296;73;21041;-61
2022/03/01 06:10:53;;;;;;;26.40;10.00;;;;;;;3.04;83.94;101455.92;1969651;73;21432;-61
2022/03/01 06:13:22;;;;;;;28.30;10.43;;;;;;;3.04;83.87;101449.42;1969377;72;21110;-61
2022/03/01 06:15:50;;;;;;;36.70;10.43;;;;;;;3.07;83.79;101447.25;1969607;73;21106;-60
2022/03/01 06:18:19;;;;;;;44.20;13.40;;;;;;;3.08;83.68;101451.16;1969610;72;21381;-60
2022/03/01 06:20:48;;;;;;;37.70;13.20;;;;;;;3.12;83.53;101448.55;1969556;73;21106;-60
2022/03/01 06:23:17;;;;;;;34.58;11.73;;;;;;;3.15;83.44;101445.52;1969573;73;21107;-61
2022/03/01 06:25:46;;;;;;;44.20;12.47;;;;;;;3.19;83.30;101454.20;1969553;73;21522;-61
2022/03/01 06:28:16;;;;;;;39.27;12.73;;;;;;;3.22;83.19;101457.69;1979472;70;21556;-60
2022/03/01 06:30:45;;;;;;;34.65;12.23;;;;;;;3.25;83.09;101460.75;2020998;71;21080;-60
2022/03/01 06:33:13;;;;;;;28.38;11.05;;;;;;;3.27;82.99;101457.72;2013299;71;21492;-61
2022/03/01 06:35:43;;;;;;;33.70;12.20;;;;;;;3.29;82.91;101459.45;1997151;72;21073;-61
2022/03/01 06:38:11;;;;;;;33.67;11.22;;;;;;;3.31;82.78;101458.59;1997343;71;21069;-60
2022/03/01 06:40:40;;;;;;;34.50;11.93;;;;;;;3.34;82.70;101459.47;1997194;72;21036;-61
2022/03/01 06:43:09;;;;;;;39.45;12.82;;;;;;;3.36;82.68;101455.58;1997250;72;21016;-61
2022/03/01 06:45:38;;;;;;;35.28;10.55;;;;;;;3.38;82.59;101457.30;1997159;72;21032;-62
2022/03/01 06:48:09;;;;;;;38.83;12.50;;;;;;;3.40;82.54;101450.36;1997011;72;21004;-62
2022/03/01 06:50:37;;;;;;;34.63;12.85;;;;;;;3.42;82.53;101438.22;1997295;72;21024;-60
2022/03/01 06:53:06;;;;;;;44.95;14.90;;;;;;;3.44;82.50;101443.43;1997217;72;21145;-61
2022/03/01 06:55:35;;;;;;;34.58;13.13;;;;;;;3.47;82.49;101437.80;1997191;72;21419;-61
2022/03/01 06:58:04;;;;;;;38.88;13.95;;;;;;;3.51;82.44;101439.97;1997273;72;21101;-62
2022/03/01 07:00:33;;;;;;;37.23;13.30;;;;;;;3.56;82.46;101432.15;1997231;72;21073;-63
2022/03/01 07:03:03;;;;;;;32.73;11.68;;;;;;;3.59;82.42;101432.16;1997189;72;21000;-60
2022/03/01 07:05:32;;;;;;;36.73;11.93;;;;;;;3.60;82.42;101433.91;1997171;72;20996;-61
2022/03/01 07:08:01;;;;;;;35.38;12.88;;;;;;;3.64;82.40;101435.65;2010410;70;21420;-61
2022/03/01 07:10:30;;;;;;;33.08;12.13;;;;;;;3.67;82.33;101440.84;2034156;70;21087;-61
2022/03/01 07:12:59;;;;;;;36.73;12.78;;;;;;;3.71;82.21;101436.09;2034124;70;21552;-61
2022/03/01 07:15:27;;;;;;;36.38;13.80;;;;;;;3.72;82.16;101429.99;2034183;70;21451;-61
2022/03/01 07:17:56;;;;;;;39.88;14.93;;;;;;;3.75;82.12;101430.45;2034294;70;21024;-61
2022/03/01 07:20:25;;;;;;;37.58;13.22;;;;;;;3.77;82.10;101432.62;2034199;70;21021;-61
2022/03/01 07:22:54;;;;;;;40.90;13.75;;;;;;;3.79;82.11;101433.03;2034280;70;21005;-60
2022/03/01 07:25:22;;;;;;;31.37;12.23;;;;;;;3.82;82.06;101440.86;2034162;70;20997;-61
2022/03/01 07:27:54;;;;;;;35.83;12.55;;;;;;;3.85;82.03;101446.09;2034082;70;21066;-62
2022/03/01 07:30:27;;;;;;;29.18;11.15;;;;;;;3.89;81.95;101435.64;2035745;70;21580;-62
2022/03/01 07:32:58;;;;;;;28.23;11.57;;;;;;;3.92;81.93;101430.44;2040206;70;21140;-61
2022/03/01 07:35:28;;;;;;;31.52;12.85;;;;;;;3.93;81.95;101442.17;2040419;70;21042;-61
2022/03/01 07:37:58;;;;;;;30.48;11.45;;;;;;;3.95;81.91;101439.57;2040110;70;21011;-61
2022/03/01 07:40:28;;;;;;;44.65;16.25;;;;;;;3.96;81.92;101446.50;2040246;70;21100;-62
2022/03/01 07:42:57;;;;;;;36.03;13.95;;;;;;;3.96;81.93;101449.11;2024615;70;21055;-60
2022/03/01 07:45:26;;;;;;;36.38;11.55;;;;;;;3.98;81.96;101453.87;2002029;71;21112;-61
2022/03/01 07:47:56;;;;;;;20.65;8.30;;;;;;;3.97;82.07;101450.86;2001316;72;21473;-61
2022/03/01 07:50:24;;;;;;;43.15;14.58;;;;;;;3.97;82.32;101444.34;1995386;72;21567;-59
2022/03/01 07:52:54;;;;;;;34.83;13.50;;;;;;;3.98;82.36;101441.70;1995125;72;21058;-60
2022/03/01 07:55:23;;;;;;;27.82;11.57;;;;;;;4.02;82.37;101434.76;1995219;72;21027;-60
2022/03/01 07:57:52;;;;;;;26.93;10.25;;;;;;;4.04;82.39;101442.17;1996941;71;21023;-59
2022/03/01 08:03:10;;;;;;;35.63;11.35;;;;;;;4.10;82.45;101458.23;2028388;71;21015;-59
2022/03/01 08:05:39;;;;;;;30.80;9.83;;;;;;;4.11;82.48;101450.83;2023977;70;21026;-62
2022/03/01 08:08:08;;;;;;;35.40;12.73;;;;;;;4.12;82.49;101442.16;1996444;71;21035;-63
2022/03/01 08:10:37;;;;;;;21.25;9.78;;;;;;;4.13;82.46;101438.25;2028541;71;21523;-62
2022/03/01 08:13:06;;;;;;;31.27;12.47;;;;;;;4.14;82.45;101441.27;2028667;71;21088;-62
2022/03/01 08:15:36;;;;;;;32.85;10.53;;;;;;;4.15;82.42;101444.33;2028522;70;21518;-65
2022/03/01 08:18:05;;;;;;;31.20;12.30;;;;;;;4.16;82.41;101449.95;2028526;71;21155;-62
2022/03/01 08:20:33;;;;;;;31.42;11.70;;;;;;;4.16;82.41;101456.47;2028215;71;21211;-62
2022/03/01 08:23:03;;;;;;;29.57;11.73;;;;;;;4.17;82.42;101454.72;2028253;71;21035;-62
2022/03/01 08:25:32;;;;;;;30.55;11.03;;;;;;;4.16;82.38;101448.65;2006042;71;21450;-62
2022/03/01 08:28:01;;;;;;;25.90;10.30;;;;;;;4.20;82.36;101440.39;2000278;71;21040;-62
2022/03/01 08:30:31;;;;;;;24.00;10.30;;;;;;;4.20;82.33;101435.18;2009404;71;21503;-62
2022/03/01 08:33:00;;;;;;;29.85;10.88;;;;;;;4.22;82.33;101437.34;2005789;71;21394;-62
2022/03/01 08:35:32;;;;;;;34.98;12.60;;;;;;;4.23;82.34;101432.13;2010651;70;21484;-61
2022/03/01 08:38:07;;;;;;;29.67;10.65;;;;;;;4.25;82.35;101423.87;2024543;71;21027;-61
2022/03/01 08:40:39;;;;;;;32.08;11.85;;;;;;;4.30;82.30;101428.20;2002708;71;21438;-62
2022/03/01 08:43:09;;;;;;;29.98;11.15;;;;;;;4.32;82.30;101426.48;1991750;72;21015;-62
2022/03/01 08:45:39;;;;;;;21.77;9.05;;;;;;;4.33;82.27;101428.20;1999810;71;21099;-61
2022/03/01 08:48:07;;;;;;;37.50;14.33;;;;;;;4.35;82.23;101432.56;2028528;71;21410;-62
2022/03/01 08:50:36;;;;;;;35.30;12.73;;;;;;;4.37;82.21;101432.12;2005473;71;21059;-61
2022/03/01 08:53:05;;;;;;;32.48;11.70;;;;;;;4.39;82.15;101430.78;1983776;72;21470;-60
2022/03/01 08:55:34;;;;;;;41.02;14.68;;;;;;;4.41;82.16;101425.16;1987325;71;21105;-61
2022/03/01 08:58:03;;;;;;;31.23;12.47;;;;;;;4.45;82.09;101434.70;2021190;70;21008;-61
2022/03/01 09:00:32;;;;;;;25.08;10.95;;;;;;;4.48;82.06;101446.41;2028512;71;21011;-61
2022/03/01 09:03:01;;;;;;;29.37;13.18;;;;;;;4.46;82.10;101454.67;2023677;71;21036;-61
2022/03/01 09:05:29;;;;;;;40.85;13.90;;;;;;;4.45;82.16;101452.95;2021833;71;21031;-62
2022/03/01 09:07:58;;;;;;;30.32;11.45;;;;;;;4.46;82.23;101455.98;2021871;71;21024;-62
2022/03/01 09:10:27;;;;;;;28.62;12.33;;;;;;;4.51;82.21;101458.15;2021687;71;21023;-61
2022/03/01 09:12:58;;;;;;;23.22;9.68;;;;;;;4.59;82.18;101440.75;2021751;71;21023;-61
2022/03/01 09:15:30;;;;;;;38.00;13.10;;;;;;;4.66;82.10;101450.72;2021880;71;20999;-61
2022/03/01 09:17:58;;;;;;;36.65;13.60;;;;;;;4.69;82.03;101452.02;2021486;70;21043;-62
2022/03/01 09:20:27;;;;;;;38.65;15.80;;;;;;;4.69;82.01;101440.72;2021902;71;21810;-61
2022/03/01 09:22:56;;;;;;;18.10;7.83;;;;;;;4.72;82.03;101445.91;2021730;71;21128;-61
2022/03/01 09:25:25;;;;;;;31.62;11.28;;;;;;;4.76;82.03;101447.66;2021749;71;21517;-62
2022/03/01 09:27:54;;;;;;;31.68;12.43;;;;;;;4.82;81.98;101455.45;2021675;71;21071;-62
2022/03/01 09:30:24;;;;;;;36.38;13.58;;;;;;;4.85;81.94;101455.45;2021821;71;21556;-62
2022/03/01 09:32:53;;;;;;;39.53;14.10;;;;;;;4.87;81.92;101454.12;2021638;71;21504;-62
2022/03/01 09:35:22;;;;;;;33.02;13.18;;;;;;;4.90;81.89;101451.05;2021875;71;21088;-62
2022/03/01 09:37:51;;;;;;;34.23;12.00;;;;;;;4.96;81.92;101449.75;2021742;71;21016;-62
2022/03/01 09:40:20;;;;;;;36.38;13.38;;;;;;;5.14;81.86;101454.44;2021744;71;21031;-62
2022/03/01 09:42:50;;;;;;;37.85;16.35;;;;;;;5.45;81.76;101452.96;2021724;71;21097;-62
2022/03/01 09:45:19;;;;;;;42.53;14.68;;;;;;;5.77;81.43;101452.72;2021616;71;21011;-62
2022/03/01 09:47:49;;;;;;;38.38;15.15;;;;;;;5.97;81.07;101456.52;2021719;71;21031;-62
2022/03/01 09:50:21;;;;;;;38.48;14.18;;;;;;;6.08;80.77;101450.75;2021802;71;20983;-62
2022/03/01 09:52:49;;;;;;;39.50;16.90;;;;;;;6.11;80.64;101461.19;2021776;71;21108;-62
2022/03/01 09:55:17;;;;;;;34.67;14.07;;;;;;;6.05;80.42;101465.18;2021901;71;21055;-62
2022/03/01 09:57:46;;;;;;;25.37;11.38;;;;;;;5.92;80.36;101473.94;2021743;71;21015;-62
2022/03/01 10:00:15;;;;;;;45.52;19.12;;;;;;;5.83;80.29;101471.41;2021691;71;20979;-62
2022/03/01 10:02:49;;;;;;;;;;;;;;;5.76;80.45;101470.60;2024637;71;21137;-61
2022/03/01 10:05:18;;;;;;;32.63;13.93;;;;;;;5.70;80.57;101470.21;2021668;70;20104;-62
2022/03/01 10:07:49;;;;;;;34.98;14.00;;;;;;;5.76;80.67;101479.30;2021681;71;21112;-61
2022/03/01 10:10:19;;;;;;;31.25;14.55;;;;;;;5.82;80.59;101481.45;2021567;71;21035;-62
2022/03/01 10:12:56;;;;;;;32.95;14.28;;;;;;;5.82;80.53;101486.23;2021797;71;21015;-61
2022/03/01 10:15:31;;;;;;;31.55;13.08;;;;;;;5.82;80.58;101484.92;2021703;71;20988;-62
2022/03/01 10:18:02;;;;;;;31.70;11.83;;;;;;;5.86;80.56;101476.17;2021707;71;21012;-62
2022/03/01 10:20:31;;;;;;;29.00;12.07;;;;;;;5.97;80.58;101480.05;2020755;70;21023;-62
2022/03/01 10:23:01;;;;;;;32.67;13.48;;;;;;;6.01;80.34;101485.67;2021396;70;21081;-62
2022/03/01 10:25:30;;;;;;;31.05;11.80;;;;;;;6.11;80.43;101482.56;2021818;71;21077;-62
2022/03/01 10:27:59;;;;;;;25.32;11.38;;;;;;;6.19;80.46;101477.66;2021835;71;21118;-62
2022/03/01 10:30:33;;;;;;;24.65;11.10;;;;;;;6.24;80.37;101475.02;2021788;71;21085;-62
2022/03/01 10:33:07;;;;;;;23.00;10.63;;;;;;;6.27;80.38;101473.70;2021921;70;21446;-62
2022/03/01 10:35:38;;;;;;;23.12;11.43;;;;;;;6.33;80.37;101472.31;2021689;70;21171;-62
2022/03/01 10:38:08;;;;;;;20.00;8.65;;;;;;;6.42;80.32;101471.37;2022119;71;21085;-62
2022/03/01 10:40:39;;;;;;;22.35;8.73;;;;;;;6.46;80.18;101473.52;2021834;71;21008;-62
2022/03/01 10:43:11;;;;;;;20.05;8.13;;;;;;;6.42;80.04;101480.53;2021829;71;20992;-62
2022/03/01 10:45:45;;;;;;;23.57;9.03;;;;;;;6.36;79.94;101478.84;2021502;70;21035;-64
2022/03/01 10:48:26;;;;;;;25.32;8.85;;;;;;;6.37;80.08;101479.24;2021964;71;21018;-62
2022/03/01 10:51:09;;;;;;;23.67;9.40;;;;;;;6.40;80.05;101475.75;2018684;70;21591;-62
2022/03/01 10:53:40;;;;;;;20.63;8.67;;;;;;;6.45;79.99;101472.62;2022098;71;21073;-62
2022/03/01 10:56:11;;;;;;;16.90;7.92;;;;;;;6.52;79.89;101487.37;2021692;71;21077;-62
2022/03/01 10:58:42;;;;;;;17.50;8.20;;;;;;;6.59;79.74;101487.34;2021874;71;21028;-62
2022/03/01 11:01:11;;;;;;;16.50;6.62;;;;;;;6.65;79.68;101492.50;2021869;71;20984;-62
2022/03/01 11:03:40;;;;;;;16.60;7.22;;;;;;;6.60;79.36;101502.14;2024517;71;21043;-62
2022/03/01 11:06:11;;;;;;;17.12;7.37;;;;;;;6.59;79.64;101497.80;2028443;70;21019;-62
2022/03/01 11:08:42;;;;;;;12.43;5.67;;;;;;;6.61;79.61;101506.05;2028362;71;21096;-62
2022/03/01 11:11:12;;;;;;;17.60;6.87;;;;;;;6.64;79.50;101496.88;2028383;71;21008;-62
2022/03/01 11:13:43;;;;;;;18.17;7.25;;;;;;;6.61;79.37;101493.42;2028381;71;21003;-62
2022/03/01 11:16:35;;;;;;;15.95;7.47;;;;;;;6.59;79.37;101501.73;2028337;70;20992;-62
2022/03/01 11:19:22;;;;;;;15.75;6.10;;;;;;;6.60;79.40;101505.61;2027442;71;21480;-61
2022/03/01 11:21:52;;;;;;;15.05;6.87;;;;;;;6.59;79.41;101500.42;2027619;71;21117;-61
2022/03/01 11:24:23;;;;;;;16.12;6.78;;;;;;;6.59;79.37;101500.42;2028506;71;21100;-61
2022/03/01 11:26:52;;;;;;;16.07;7.20;;;;;;;6.58;79.32;101489.06;2028417;71;21081;-61
2022/03/01 11:29:22;;;;;;;18.82;8.08;;;;;;;6.65;79.35;101489.88;2028597;71;21140;-61
2022/03/01 11:32:00;;;;;;;17.00;7.72;;;;;;;6.70;79.28;101485.02;2028212;70;21035;-61
2022/03/01 11:37:23;;;;;;;16.77;6.62;;;;;;;6.88;79.15;101475.20;1987626;72;21101;-61
2022/03/01 11:39:57;;;;;;;12.25;5.80;;;;;;;7.24;79.07;101472.56;1987629;72;20992;-61